Time;durP1;ratioP1;P1;durP2;ratioP2;P2;SDS_P1;SDS_P2;PMS_P1;PMS_P2;Temp;Humidity;BMP_temperature;BMP_pressure;BME280_temperature;BME280_humidity;BME280_pressure;Samples;Min_cycle;Max_cycle;Signal;HPM_P1;HPM_P2
2021/05/09 00:01:53;;;;;;;8.13;5.17;;;12.90;99.90;;;;;;5109957;28;20048;-64
2021/05/09 00:04:20;;;;;;;5.43;4.80;;;12.90;99.90;;;;;;5109638;28;20294;-64
2021/05/09 00:06:49;;;;;;;7.77;5.20;;;12.80;99.90;;;;;;5109532;28;20096;-64
2021/05/09 00:09:15;;;;;;;7.43;4.83;;;12.80;99.90;;;;;;5113404;28;20320;-64
2021/05/09 00:11:42;;;;;;;8.60;4.90;;;12.80;99.90;;;;;;5112750;28;20386;-63
2021/05/09 00:14:12;;;;;;;7.77;4.97;;;12.80;99.90;;;;;;5113039;28;20296;-63
2021/05/09 00:16:38;;;;;;;8.17;5.00;;;12.70;99.90;;;;;;5112768;28;20297;-64
2021/05/09 00:19:04;;;;;;;10.97;5.50;;;12.70;99.90;;;;;;5113062;28;20459;-64
2021/05/09 00:21:33;;;;;;;8.60;5.57;;;12.70;99.90;;;;;;5112887;28;20376;-63
2021/05/09 00:23:59;;;;;;;8.83;4.97;;;12.60;99.90;;;;;;5113431;28;20412;-64
2021/05/09 00:26:25;;;;;;;10.20;5.47;;;12.60;99.90;;;;;;5112883;28;20040;-64
2021/05/09 00:28:51;;;;;;;12.03;5.43;;;12.50;99.90;;;;;;5112048;28;20304;-64
2021/05/09 00:31:16;;;;;;;9.20;5.20;;;12.60;99.90;;;;;;5113017;28;20055;-63
2021/05/09 00:33:42;;;;;;;9.50;5.47;;;12.50;99.90;;;;;;5111804;28;20437;-64
2021/05/09 00:36:08;;;;;;;11.83;5.70;;;12.50;99.90;;;;;;5093943;28;20070;-64
2021/05/09 00:38:34;;;;;;;10.37;5.60;;;12.50;99.90;;;;;;5111521;28;20044;-63
2021/05/09 00:41:00;;;;;;;5.73;4.77;;;12.60;99.90;;;;;;5112383;28;20628;-64
2021/05/09 00:43:26;;;;;;;7.90;5.20;;;12.50;99.90;;;;;;5112380;28;20054;-63
2021/05/09 00:45:53;;;;;;;7.30;5.33;;;12.50;99.90;;;;;;5111974;28;20423;-64
2021/05/09 00:48:19;;;;;;;8.83;5.30;;;12.60;99.90;;;;;;5111723;28;20300;-63
2021/05/09 00:50:45;;;;;;;9.43;5.57;;;12.60;99.90;;;;;;5111579;28;20672;-64
2021/05/09 00:53:13;;;;;;;7.40;5.00;;;12.60;99.90;;;;;;5112240;28;20396;-64
2021/05/09 00:55:41;;;;;;;13.67;6.03;;;12.60;99.90;;;;;;5111276;28;20066;-63
2021/05/09 00:58:09;;;;;;;7.97;5.20;;;12.60;99.90;;;;;;5111666;28;20341;-64
2021/05/09 01:00:38;;;;;;;12.33;5.97;;;12.50;99.90;;;;;;5111541;28;20297;-64
2021/05/09 01:03:07;;;;;;;9.23;6.20;;;12.50;99.90;;;;;;5111282;28;20320;-63
2021/05/09 01:05:33;;;;;;;8.53;5.57;;;12.50;99.90;;;;;;5111527;28;20831;-64
2021/05/09 01:08:01;;;;;;;8.67;5.17;;;12.50;99.90;;;;;;5111492;28;20354;-64
2021/05/09 01:10:28;;;;;;;11.37;5.30;;;12.40;99.90;;;;;;5111381;28;20036;-64
2021/05/09 01:12:54;;;;;;;11.33;5.40;;;12.30;99.90;;;;;;5110812;28;20764;-63
2021/05/09 01:15:22;;;;;;;8.80;5.20;;;12.30;99.90;;;;;;5111181;28;20635;-64
2021/05/09 01:17:48;;;;;;;8.03;5.23;;;12.30;99.90;;;;;;5111224;28;20309;-63
2021/05/09 01:20:13;;;;;;;8.90;5.43;;;12.20;99.90;;;;;;5110702;28;20304;-64
2021/05/09 01:22:43;;;;;;;13.90;5.13;;;12.10;99.90;;;;;;5111700;28;20043;-63
2021/05/09 01:25:10;;;;;;;10.43;5.70;;;12.10;99.90;;;;;;5111157;28;20320;-64
2021/05/09 01:27:37;;;;;;;8.00;5.33;;;12.10;99.90;;;;;;5111326;28;20300;-63
2021/05/09 01:30:05;;;;;;;8.00;5.10;;;12.10;99.90;;;;;;5110891;28;20304;-64
2021/05/09 01:32:31;;;;;;;8.07;5.30;;;12.00;99.90;;;;;;5110834;28;20312;-63
2021/05/09 01:34:56;;;;;;;10.03;5.60;;;12.00;99.90;;;;;;5111046;28;20293;-63
2021/05/09 01:37:22;;;;;;;9.00;5.57;;;12.00;99.90;;;;;;5110914;28;20092;-64
2021/05/09 01:39:48;;;;;;;7.23;5.30;;;11.90;99.90;;;;;;5110744;28;20043;-63
2021/05/09 01:42:14;;;;;;;7.87;5.50;;;11.90;99.90;;;;;;5110935;28;20543;-64
2021/05/09 01:44:55;;;;;;;11.90;5.73;;;11.90;99.90;;;;;;5110857;28;20396;-63
2021/05/09 01:47:21;;;;;;;9.87;5.70;;;11.90;99.90;;;;;;5110798;28;20293;-63
2021/05/09 01:49:50;;;;;;;7.80;5.57;;;11.90;99.90;;;;;;5110709;28;20385;-64
2021/05/09 01:52:18;;;;;;;6.87;5.70;;;11.80;99.90;;;;;;5111500;28;20305;-64
2021/05/09 01:54:45;;;;;;;8.90;5.60;;;11.80;99.90;;;;;;5110469;28;20297;-63
2021/05/09 01:57:11;;;;;;;11.33;6.57;;;11.80;99.90;;;;;;5110732;28;20305;-64
2021/05/09 01:59:37;;;;;;;9.43;5.83;;;11.80;99.90;;;;;;5110921;28;20801;-64
2021/05/09 02:02:03;;;;;;;10.20;5.70;;;11.90;99.90;;;;;;5110791;28;20301;-63
2021/05/09 02:04:35;;;;;;;11.63;6.60;;;11.80;99.90;;;;;;5111008;28;20043;-63
2021/05/09 02:07:20;;;;;;;11.37;6.50;;;11.70;99.90;;;;;;5095630;28;20282;-63
2021/05/09 02:09:46;;;;;;;9.20;6.00;;;11.70;99.90;;;;;;5110554;28;20691;-64
2021/05/09 02:12:13;;;;;;;11.60;5.97;;;11.60;99.90;;;;;;5110195;28;20052;-64
2021/05/09 02:14:38;;;;;;;9.03;6.43;;;11.50;99.90;;;;;;5110566;28;20345;-63
2021/05/09 02:17:05;;;;;;;9.87;6.13;;;11.50;99.90;;;;;;5110505;28;20297;-64
2021/05/09 02:19:32;;;;;;;8.97;6.20;;;11.50;99.90;;;;;;5110319;28;20293;-64
2021/05/09 02:21:57;;;;;;;10.37;6.03;;;11.50;99.90;;;;;;5110563;28;20312;-64
2021/05/09 02:24:23;;;;;;;9.37;5.90;;;11.40;99.90;;;;;;5110528;28;20649;-63
2021/05/09 02:26:49;;;;;;;8.73;5.60;;;11.40;99.90;;;;;;5110478;28;20054;-63
2021/05/09 02:29:15;;;;;;;9.43;6.10;;;11.30;99.90;;;;;;5110670;28;20523;-64
2021/05/09 02:31:41;;;;;;;7.30;5.63;;;11.30;99.90;;;;;;5110259;28;20408;-63
2021/05/09 02:34:06;;;;;;;11.37;6.13;;;11.30;99.90;;;;;;5110003;28;20407;-64
2021/05/09 02:36:33;;;;;;;11.03;6.53;;;11.20;99.90;;;;;;5110074;28;20471;-64
2021/05/09 02:38:59;;;;;;;10.63;6.63;;;11.20;99.90;;;;;;5110188;28;20319;-63
2021/05/09 02:41:24;;;;;;;9.97;5.87;;;11.10;99.90;;;;;;5109833;28;20070;-64
2021/05/09 02:43:50;;;;;;;10.00;6.33;;;11.20;99.90;;;;;;5110386;28;20055;-64
2021/05/09 02:46:17;;;;;;;8.80;6.10;;;11.10;99.90;;;;;;5109743;28;20047;-64
2021/05/09 02:48:42;;;;;;;8.93;6.10;;;11.20;99.90;;;;;;5110307;28;20374;-64
2021/05/09 02:51:09;;;;;;;9.73;6.30;;;11.10;99.90;;;;;;5109812;28;20772;-64
2021/05/09 02:53:34;;;;;;;10.10;6.20;;;11.10;99.90;;;;;;5110096;28;20300;-63
2021/05/09 02:56:04;;;;;;;13.30;7.17;;;11.10;99.90;;;;;;5109506;28;20067;-64
2021/05/09 02:58:31;;;;;;;10.50;6.30;;;11.00;99.90;;;;;;5110108;28;20325;-65
2021/05/09 03:00:57;;;;;;;9.30;6.50;;;10.90;99.90;;;;;;5091452;28;20297;-63
2021/05/09 03:03:22;;;;;;;9.60;6.70;;;10.90;99.90;;;;;;5109579;28;20330;-65
2021/05/09 03:05:48;;;;;;;12.20;6.37;;;10.80;99.90;;;;;;5110658;28;20047;-64
2021/05/09 03:08:14;;;;;;;11.97;6.40;;;10.90;99.90;;;;;;5110344;28;20047;-63
2021/05/09 03:10:40;;;;;;;12.30;6.27;;;10.90;99.90;;;;;;5110282;28;20143;-64
2021/05/09 03:13:06;;;;;;;10.57;6.10;;;10.90;99.90;;;;;;5109747;28;20044;-64
2021/05/09 03:15:32;;;;;;;10.93;6.47;;;10.90;99.90;;;;;;5110156;28;20613;-64
2021/05/09 03:17:57;;;;;;;11.30;6.33;;;10.80;99.90;;;;;;5110063;28;20418;-64
2021/05/09 03:20:24;;;;;;;10.60;6.30;;;10.90;99.90;;;;;;5109744;28;20050;-64
2021/05/09 03:22:49;;;;;;;10.60;6.63;;;10.90;99.90;;;;;;5109311;28;20035;-64
2021/05/09 03:25:15;;;;;;;11.90;6.90;;;10.80;99.90;;;;;;5109684;28;20293;-64
2021/05/09 03:27:41;;;;;;;12.50;6.57;;;11.00;99.90;;;;;;5109517;28;20043;-64
2021/05/09 03:30:07;;;;;;;10.40;6.53;;;10.90;99.90;;;;;;5109116;28;20058;-64
2021/05/09 03:32:33;;;;;;;11.47;6.70;;;10.90;99.90;;;;;;5109761;28;20054;-64
2021/05/09 03:34:59;;;;;;;11.63;6.80;;;10.80;99.90;;;;;;5109449;28;20293;-64
2021/05/09 03:37:24;;;;;;;11.63;6.40;;;10.80;99.90;;;;;;5108739;28;20044;-64
2021/05/09 03:39:50;;;;;;;12.90;6.87;;;11.00;99.90;;;;;;5108945;28;20096;-64
2021/05/09 03:42:16;;;;;;;13.10;6.40;;;10.80;99.90;;;;;;5110348;28;20043;-65
2021/05/09 03:44:42;;;;;;;11.33;6.77;;;10.80;99.90;;;;;;5113641;28;20067;-63
2021/05/09 03:47:08;;;;;;;10.80;6.40;;;10.80;99.90;;;;;;5113790;28;20301;-64
2021/05/09 03:49:33;;;;;;;10.43;6.90;;;10.80;99.90;;;;;;5113840;28;20044;-64
2021/05/09 03:51:59;;;;;;;9.40;6.53;;;10.80;99.90;;;;;;5113593;28;20090;-64
2021/05/09 03:54:34;;;;;;;8.70;6.03;;;10.80;99.90;;;;;;5113428;28;20361;-65
2021/05/09 03:57:00;;;;;;;9.83;6.40;;;11.00;99.90;;;;;;5112840;28;20306;-63
2021/05/09 03:59:27;;;;;;;13.03;6.27;;;10.80;99.90;;;;;;5112346;28;20397;-64
2021/05/09 04:01:53;;;;;;;10.80;6.63;;;10.80;99.90;;;;;;5112300;28;20332;-65
2021/05/09 04:04:18;;;;;;;12.30;6.83;;;10.90;99.90;;;;;;5111916;28;20147;-63
2021/05/09 04:06:44;;;;;;;10.47;6.30;;;10.90;99.90;;;;;;5111827;28;20067;-64
2021/05/09 04:09:10;;;;;;;12.47;6.70;;;11.10;99.90;;;;;;5112152;28;20101;-65
2021/05/09 04:11:36;;;;;;;7.80;6.30;;;11.00;99.90;;;;;;5112177;28;20534;-64
2021/05/09 04:14:02;;;;;;;10.73;6.27;;;11.00;99.90;;;;;;5111945;28;20048;-64
2021/05/09 04:16:27;;;;;;;12.00;6.70;;;11.10;99.90;;;;;;5111953;28;20432;-64
2021/05/09 04:18:54;;;;;;;9.03;6.57;;;11.10;99.90;;;;;;5112273;28;20296;-65
2021/05/09 04:21:19;;;;;;;10.33;6.80;;;11.10;99.90;;;;;;5111936;28;20293;-64
2021/05/09 04:23:46;;;;;;;10.80;6.03;;;11.10;99.90;;;;;;5111846;28;20522;-64
2021/05/09 04:26:12;;;;;;;14.57;7.10;;;11.20;99.90;;;;;;5112004;28;20293;-64
2021/05/09 04:28:38;;;;;;;13.33;6.33;;;11.10;99.90;;;;;;5111895;28;20100;-63
2021/05/09 04:31:03;;;;;;;10.23;6.83;;;11.10;99.90;;;;;;5112120;28;20293;-64
2021/05/09 04:33:29;;;;;;;11.20;7.00;;;11.10;99.90;;;;;;5111538;28;20459;-65
2021/05/09 04:36:03;;;;;;;12.40;6.77;;;11.20;99.90;;;;;;5111838;28;20051;-64
2021/05/09 04:38:29;;;;;;;10.50;6.80;;;11.20;99.90;;;;;;5093184;28;20301;-63
2021/05/09 04:40:55;;;;;;;11.47;6.57;;;11.30;99.90;;;;;;5111336;28;20308;-65
2021/05/09 04:43:21;;;;;;;9.60;6.10;;;11.40;99.90;;;;;;5111555;28;20043;-64
2021/05/09 04:45:55;;;;;;;9.00;5.80;;;11.70;99.90;;;;;;5111334;28;20051;-63
2021/05/09 04:48:22;;;;;;;10.23;5.85;;;11.90;99.90;;;;;;5111214;28;20373;-63
2021/05/09 04:50:48;;;;;;;10.30;5.40;;;12.20;99.90;;;;;;5111739;28;20048;-64
2021/05/09 04:53:21;;;;;;;8.97;5.27;;;12.30;99.90;;;;;;5111258;28;20315;-63
2021/05/09 04:55:46;;;;;;;12.17;5.70;;;12.50;99.90;;;;;;5110747;28;20298;-64
2021/05/09 04:58:12;;;;;;;9.97;5.43;;;12.70;99.90;;;;;;5111622;28;20297;-64
2021/05/09 05:00:38;;;;;;;6.53;4.80;;;12.90;99.90;;;;;;5111348;28;20050;-64
2021/05/09 05:03:04;;;;;;;8.83;5.33;;;13.10;99.90;;;;;;5111109;28;20058;-64
2021/05/09 05:05:29;;;;;;;7.40;4.63;;;13.20;99.90;;;;;;5112278;28;20047;-64
2021/05/09 05:07:55;;;;;;;9.57;5.37;;;13.20;99.90;;;;;;5111594;28;20459;-64
2021/05/09 05:10:21;;;;;;;9.13;5.10;;;13.40;99.90;;;;;;5111579;28;20035;-64
2021/05/09 05:12:46;;;;;;;7.33;4.60;;;13.50;99.90;;;;;;5109933;28;20099;-64
2021/05/09 05:15:13;;;;;;;8.80;5.10;;;13.70;99.90;;;;;;5111093;28;20051;-63
2021/05/09 05:17:38;;;;;;;7.70;4.67;;;13.80;99.90;;;;;;5111714;28;20055;-65
2021/05/09 05:20:05;;;;;;;8.83;4.97;;;14.00;99.90;;;;;;5111528;28;20353;-64
2021/05/09 05:22:30;;;;;;;7.87;4.63;;;14.20;99.90;;;;;;5111438;28;20126;-63
2021/05/09 05:24:56;;;;;;;10.17;4.93;;;14.30;99.90;;;;;;5113591;28;20116;-64
2021/05/09 05:27:22;;;;;;;10.53;4.83;;;14.30;99.90;;;;;;5113657;28;20046;-64
2021/05/09 05:29:47;;;;;;;6.33;4.50;;;14.40;99.90;;;;;;5092365;28;20068;-63
2021/05/09 05:32:13;;;;;;;9.00;4.50;;;14.70;99.90;;;;;;5110917;28;20096;-64
2021/05/09 05:34:38;;;;;;;12.10;5.07;;;14.70;99.90;;;;;;5110654;28;20472;-64
2021/05/09 05:37:04;;;;;;;9.50;5.07;;;14.80;99.90;;;;;;5111603;28;20534;-64
2021/05/09 05:39:30;;;;;;;8.87;5.13;;;14.90;99.90;;;;;;5111555;28;20083;-65
2021/05/09 05:41:56;;;;;;;9.17;5.13;;;15.00;99.90;;;;;;5110142;28;20412;-63
2021/05/09 05:44:22;;;;;;;11.17;4.60;;;15.10;99.90;;;;;;5110596;28;20039;-65
2021/05/09 05:46:48;;;;;;;10.47;5.17;;;15.10;99.90;;;;;;5110477;28;20579;-64
2021/05/09 05:49:14;;;;;;;9.10;5.50;;;15.30;99.90;;;;;;5090945;28;20109;-64
2021/05/09 05:51:40;;;;;;;9.13;4.90;;;15.30;99.90;;;;;;5109488;28;20542;-64
2021/05/09 05:54:06;;;;;;;9.33;5.10;;;15.40;99.90;;;;;;5108940;28;20040;-64
2021/05/09 05:56:32;;;;;;;10.67;5.20;;;15.40;99.90;;;;;;5108706;28;20506;-64
2021/05/09 05:58:58;;;;;;;8.20;4.53;;;15.60;99.90;;;;;;5110480;28;20071;-64
2021/05/09 06:01:23;;;;;;;8.67;4.90;;;15.60;99.90;;;;;;5109859;28;20467;-63
2021/05/09 06:03:49;;;;;;;8.77;5.07;;;15.70;99.90;;;;;;5110674;28;20048;-64
2021/05/09 06:06:15;;;;;;;7.97;5.23;;;15.90;99.90;;;;;;5110578;28;20441;-64
2021/05/09 06:08:42;;;;;;;8.57;4.83;;;15.90;99.90;;;;;;5111331;28;20047;-64
2021/05/09 06:11:07;;;;;;;8.97;5.40;;;15.90;99.90;;;;;;5111290;28;20100;-65
2021/05/09 06:13:34;;;;;;;12.57;5.07;;;16.00;99.90;;;;;;5110237;28;20385;-64
2021/05/09 06:15:59;;;;;;;6.60;4.30;;;15.90;99.90;;;;;;5109776;28;20084;-63
2021/05/09 06:18:25;;;;;;;8.20;4.50;;;15.80;99.90;;;;;;5107344;28;20040;-64
2021/05/09 06:20:51;;;;;;;8.53;4.60;;;15.90;99.90;;;;;;5110500;28;20051;-64
2021/05/09 06:23:26;;;;;;;7.83;4.77;;;16.00;99.90;;;;;;5111232;28;20064;-64
2021/05/09 06:25:52;;;;;;;7.97;4.70;;;16.20;99.90;;;;;;5110808;28;20119;-65
2021/05/09 06:28:18;;;;;;;6.90;4.37;;;16.20;99.90;;;;;;5111671;28;20405;-64
2021/05/09 06:30:48;;;;;;;8.83;4.70;;;16.40;99.90;;;;;;5112472;28;20043;-63
2021/05/09 06:33:15;;;;;;;8.70;5.33;;;16.40;99.90;;;;;;5109187;28;20211;-64
2021/05/09 06:35:43;;;;;;;7.53;4.70;;;16.50;99.90;;;;;;5110048;28;20066;-61
2021/05/09 06:38:10;;;;;;;7.00;4.73;;;16.50;99.90;;;;;;5109126;28;20047;-63
2021/05/09 06:40:37;;;;;;;8.60;4.10;;;16.50;99.90;;;;;;5114333;28;20111;-64
2021/05/09 06:43:04;;;;;;;9.43;4.10;;;16.50;99.90;;;;;;5115186;28;20060;-63
2021/05/09 06:45:33;;;;;;;7.47;4.40;;;16.60;99.90;;;;;;5112304;28;20087;-63
2021/05/09 06:48:07;;;;;;;7.40;4.53;;;16.60;99.90;;;;;;5113727;28;20061;-65
2021/05/09 06:50:34;;;;;;;6.75;4.07;;;16.70;99.90;;;;;;5114108;28;20115;-64
2021/05/09 06:53:02;;;;;;;7.07;3.97;;;16.80;99.20;;;;;;5117012;28;20036;-63
2021/05/09 06:55:29;;;;;;;9.07;4.10;;;16.90;99.50;;;;;;5111459;28;20043;-64
2021/05/09 06:57:56;;;;;;;7.07;3.47;;;16.90;97.60;;;;;;5111308;28;20039;-63
2021/05/09 07:00:21;;;;;;;8.73;4.23;;;17.00;98.60;;;;;;5112937;28;20134;-63
2021/05/09 07:02:48;;;;;;;8.00;3.93;;;17.10;97.50;;;;;;5114369;28;20047;-63
2021/05/09 07:05:14;;;;;;;6.27;4.17;;;17.20;97.40;;;;;;5111762;28;20071;-65
2021/05/09 07:07:47;;;;;;;8.10;3.40;;;17.30;97.50;;;;;;5114544;28;20044;-64
2021/05/09 07:10:13;;;;;;;8.13;4.18;;;17.50;97.10;;;;;;5095910;28;20076;-63
2021/05/09 07:12:39;;;;;;;6.57;3.20;;;17.50;96.90;;;;;;5115478;28;20371;-64
2021/05/09 07:15:05;;;;;;;5.73;3.53;;;17.50;96.30;;;;;;5126325;28;20084;-63
2021/05/09 07:17:31;;;;;;;5.27;3.47;;;17.60;96.30;;;;;;5120770;28;20073;-63
2021/05/09 07:19:57;;;;;;;7.53;3.23;;;17.70;95.80;;;;;;5123089;28;20050;-60
2021/05/09 07:22:30;;;;;;;4.57;3.07;;;17.70;95.60;;;;;;5124616;28;20043;-60
2021/05/09 07:24:56;;;;;;;7.45;2.97;;;17.70;95.80;;;;;;5125424;28;20058;-63
2021/05/09 07:27:22;;;;;;;4.00;2.97;;;17.80;94.90;;;;;;5126769;28;20414;-63
2021/05/09 07:29:47;;;;;;;9.17;3.23;;;17.90;95.80;;;;;;5124727;28;20027;-61
2021/05/09 07:32:13;;;;;;;4.63;3.00;;;17.90;93.90;;;;;;5125937;28;20050;-62
2021/05/09 07:34:38;;;;;;;5.13;2.87;;;17.90;93.00;;;;;;5127794;28;20077;-61
2021/05/09 07:37:04;;;;;;;4.00;2.80;;;17.90;94.10;;;;;;5128874;28;20040;-62
2021/05/09 07:39:30;;;;;;;7.57;2.70;;;18.10;95.00;;;;;;5126035;28;20043;-61
2021/05/09 07:41:56;;;;;;;4.50;2.80;;;18.10;93.20;;;;;;5124010;28;20509;-63
2021/05/09 07:44:21;;;;;;;6.33;2.90;;;18.20;93.20;;;;;;5123916;28;20514;-60
2021/05/09 07:46:47;;;;;;;6.70;2.80;;;18.30;92.90;;;;;;5119912;28;20092;-59
2021/05/09 07:49:13;;;;;;;5.20;2.70;;;18.40;93.80;;;;;;5109318;28;20084;-59
2021/05/09 07:51:39;;;;;;;3.30;2.10;;;18.50;93.30;;;;;;5112058;28;20082;-59
2021/05/09 07:54:05;;;;;;;10.80;3.20;;;18.50;93.90;;;;;;5112186;28;20101;-65
2021/05/09 07:56:33;;;;;;;6.40;2.70;;;18.50;93.70;;;;;;5112206;28;20043;-64
2021/05/09 07:58:58;;;;;;;2.90;2.50;;;18.50;92.10;;;;;;5112292;28;20088;-58
2021/05/09 08:01:24;;;;;;;5.17;3.20;;;18.60;91.70;;;;;;5114505;28;20175;-63
2021/05/09 08:03:50;;;;;;;4.80;2.77;;;18.60;90.90;;;;;;5113939;28;20055;-63
2021/05/09 08:06:16;;;;;;;4.10;2.60;;;18.60;91.10;;;;;;5108422;28;20420;-62
2021/05/09 08:08:41;;;;;;;3.87;2.50;;;18.70;91.40;;;;;;5108294;28;20055;-63
2021/05/09 08:11:07;;;;;;;6.07;2.77;;;18.60;91.00;;;;;;5108487;28;20051;-62
2021/05/09 08:13:33;;;;;;;3.53;2.40;;;18.60;92.50;;;;;;5109041;28;20047;-62
2021/05/09 08:15:59;;;;;;;6.27;2.83;;;18.60;93.00;;;;;;5108584;28;20052;-62
2021/05/09 08:18:25;;;;;;;5.43;2.70;;;18.60;90.80;;;;;;5108528;28;20080;-62
2021/05/09 08:20:55;;;;;;;3.50;2.40;;;18.60;91.20;;;;;;5091178;28;20577;-63
2021/05/09 08:23:21;;;;;;;5.07;2.60;;;18.60;90.60;;;;;;5110057;28;20077;-62
2021/05/09 08:25:47;;;;;;;5.00;2.60;;;18.80;91.50;;;;;;5109607;28;20463;-62
2021/05/09 08:28:12;;;;;;;4.40;2.80;;;18.80;90.10;;;;;;5109875;28;20123;-62
2021/05/09 08:30:38;;;;;;;2.97;2.67;;;18.90;90.70;;;;;;5110577;28;20043;-59
2021/05/09 08:33:04;;;;;;;4.20;2.43;;;19.10;90.70;;;;;;5110651;28;20173;-64
2021/05/09 08:35:30;;;;;;;5.07;2.60;;;19.20;91.50;;;;;;5108980;28;20047;-63
2021/05/09 08:37:55;;;;;;;3.43;2.37;;;19.30;88.50;;;;;;5109543;28;20366;-64
2021/05/09 08:40:22;;;;;;;3.87;2.60;;;19.40;83.70;;;;;;5108923;28;20040;-63
2021/05/09 08:42:50;;;;;;;3.70;2.20;;;19.40;84.00;;;;;;5109092;28;20048;-62
2021/05/09 08:45:17;;;;;;;3.30;2.40;;;19.50;84.40;;;;;;5109000;28;20036;-63
2021/05/09 08:47:43;;;;;;;6.07;2.70;;;19.60;83.80;;;;;;5110429;28;20073;-63
2021/05/09 08:50:11;;;;;;;8.60;2.70;;;19.70;80.50;;;;;;5110940;28;20047;-63
2021/05/09 08:52:38;;;;;;;4.37;2.30;;;19.80;76.90;;;;;;5110898;28;20054;-62
2021/05/09 08:55:06;;;;;;;5.53;2.27;;;19.80;77.10;;;;;;5110934;28;20454;-62
2021/05/09 08:57:32;;;;;;;3.73;2.20;;;19.80;78.70;;;;;;5108785;28;20071;-63
2021/05/09 08:59:58;;;;;;;4.87;2.10;;;19.90;80.70;;;;;;5108478;28;20039;-62
2021/05/09 09:02:26;;;;;;;5.03;2.00;;;20.00;79.80;;;;;;5108131;28;20056;-63
2021/05/09 09:04:53;;;;;;;4.67;2.27;;;20.10;76.60;;;;;;5108746;28;20524;-62
2021/05/09 09:07:20;;;;;;;2.60;1.80;;;20.10;76.20;;;;;;5108949;28;20043;-63
2021/05/09 09:09:48;;;;;;;3.93;2.20;;;20.20;72.90;;;;;;5108153;28;20066;-63
2021/05/09 09:12:15;;;;;;;2.50;1.70;;;20.30;73.10;;;;;;5108516;28;20052;-63
2021/05/09 09:14:58;;;;;;;4.30;2.00;;;20.30;73.40;;;;;;5108801;28;20067;-63
2021/05/09 09:17:25;;;;;;;5.83;2.40;;;20.40;74.00;;;;;;5107886;28;20474;-63
2021/05/09 09:20:02;;;;;;;3.10;1.60;;;20.70;74.70;;;;;;5109778;28;20503;-62
2021/05/09 09:23:03;;;;;;;4.13;1.83;;;20.90;69.40;;;;;;5109881;28;20043;-62
2021/05/09 09:25:34;;;;;;;3.33;1.60;;;21.20;67.50;;;;;;5109248;28;20054;-63
2021/05/09 09:28:01;;;;;;;2.60;1.30;;;21.50;63.30;;;;;;5109028;28;20142;-62
2021/05/09 09:30:29;;;;;;;4.10;1.30;;;21.60;62.80;;;;;;5110556;28;20681;-62
2021/05/09 09:33:15;;;;;;;1.63;1.30;;;21.90;64.10;;;;;;5109776;28;20058;-63
2021/05/09 09:35:46;;;;;;;4.80;1.03;;;22.00;59.40;;;;;;5107738;28;20048;-63
2021/05/09 09:38:32;;;;;;;1.80;1.20;;;22.00;57.20;;;;;;5089524;28;20088;-62
2021/05/09 09:41:08;;;;;;;7.43;1.40;;;22.10;55.20;;;;;;5107008;28;20046;-63
2021/05/09 09:43:35;;;;;;;1.73;1.13;;;22.30;55.90;;;;;;5107738;28;20040;-63
2021/05/09 09:46:00;;;;;;;3.60;1.13;;;22.60;57.00;;;;;;5107478;28;20043;-62
2021/05/09 09:48:41;;;;;;;2.33;1.30;;;22.80;57.70;;;;;;5107693;28;20118;-62
2021/05/09 09:51:08;;;;;;;2.93;1.00;;;22.80;56.60;;;;;;5107620;28;20048;-63
2021/05/09 09:53:39;;;;;;;1.50;0.97;;;22.70;56.60;;;;;;5107496;28;20074;-62
2021/05/09 09:56:08;;;;;;;3.00;1.57;;;22.60;55.70;;;;;;5108068;28;20451;-63
2021/05/09 09:58:58;;;;;;;2.27;1.10;;;22.60;55.00;;;;;;5109323;28;20055;-63
2021/05/09 10:01:26;;;;;;;2.17;1.40;;;22.50;57.10;;;;;;5109071;28;20086;-63
2021/05/09 10:03:57;;;;;;;1.10;1.00;;;22.50;56.20;;;;;;5109075;28;20051;-63
2021/05/09 10:06:24;;;;;;;3.70;1.30;;;22.50;55.70;;;;;;5102097;28;20062;-64
2021/05/09 10:08:51;;;;;;;1.93;0.97;;;22.50;56.80;;;;;;5088722;28;20044;-63
2021/05/09 10:11:18;;;;;;;3.23;1.10;;;22.60;55.70;;;;;;5088477;28;20044;-64
2021/05/09 10:13:46;;;;;;;1.37;0.90;;;22.80;53.70;;;;;;5089033;28;20129;-63
2021/05/09 10:16:13;;;;;;;3.17;0.97;;;22.80;51.70;;;;;;5089410;28;20089;-63
2021/05/09 10:18:44;;;;;;;2.17;1.07;;;23.10;51.20;;;;;;5088766;28;20040;-64
2021/05/09 10:21:10;;;;;;;2.87;1.00;;;23.20;48.90;;;;;;5088450;28;20481;-64
2021/05/09 10:24:11;;;;;;;2.73;1.13;;;23.20;46.50;;;;;;5088712;28;20071;-64
2021/05/09 10:26:47;;;;;;;2.37;1.00;;;23.00;46.60;;;;;;5089007;28;20058;-66
2021/05/09 10:29:47;;;;;;;3.53;0.70;;;22.90;46.80;;;;;;5087491;28;20051;-65
2021/05/09 10:32:19;;;;;;;1.70;0.77;;;23.20;47.60;;;;;;5097220;28;20039;-61
2021/05/09 10:34:57;;;;;;;2.60;0.80;;;23.30;47.10;;;;;;5090920;28;20098;-63
2021/05/09 10:37:42;;;;;;;1.17;0.90;;;23.50;45.30;;;;;;5110754;28;20047;-63
2021/05/09 10:40:25;;;;;;;4.10;0.90;;;23.80;45.10;;;;;;5112130;28;20055;-63
2021/05/09 10:43:07;;;;;;;4.27;1.00;;;23.90;47.10;;;;;;5111731;28;20048;-63
2021/05/09 10:45:33;;;;;;;1.80;1.00;;;23.90;44.70;;;;;;5110759;28;20075;-63
2021/05/09 10:48:15;;;;;;;1.83;1.00;;;23.90;45.50;;;;;;5110365;28;20051;-63
2021/05/09 10:50:45;;;;;;;1.20;0.83;;;23.70;45.50;;;;;;5111144;28;20051;-63
2021/05/09 10:53:36;;;;;;;2.40;0.93;;;23.80;46.00;;;;;;5112149;28;20047;-63
2021/05/09 10:56:10;;;;;;;1.00;0.90;;;23.50;44.40;;;;;;5111823;28;20119;-63
2021/05/09 10:58:39;;;;;;;1.43;0.97;;;23.60;47.50;;;;;;5093656;28;20050;-63
2021/05/09 11:01:08;;;;;;;2.37;1.07;;;23.60;48.70;;;;;;5111401;28;20108;-63
2021/05/09 11:03:40;;;;;;;8.20;5.73;;;23.70;47.50;;;;;;5109931;28;20052;-63
2021/05/09 11:06:07;;;;;;;88.20;50.70;;;23.80;47.50;;;;;;5091717;28;20114;-63
2021/05/09 11:08:41;;;;;;;28.87;22.83;;;24.00;48.40;;;;;;5109665;28;20070;-63
2021/05/09 11:11:20;;;;;;;8.00;5.77;;;24.20;48.80;;;;;;5109272;28;20043;-63
2021/05/09 11:13:58;;;;;;;1.13;1.03;;;24.50;48.10;;;;;;5109824;28;20054;-64
2021/05/09 11:16:31;;;;;;;4.13;1.63;;;24.70;47.50;;;;;;5108738;28;20044;-63
2021/05/09 11:18:57;;;;;;;1.50;1.20;;;24.80;46.50;;;;;;5108885;28;20051;-63
2021/05/09 11:21:33;;;;;;;3.73;1.40;;;24.70;48.00;;;;;;5094167;28;20080;-63
2021/05/09 11:24:00;;;;;;;1.77;1.50;;;25.00;46.50;;;;;;5086354;28;20113;-63
2021/05/09 11:26:27;;;;;;;6.37;1.10;;;25.00;47.00;;;;;;5086808;28;20059;-64
2021/05/09 11:29:06;;;;;;;1.47;1.10;;;25.00;47.10;;;;;;5087860;28;20121;-64
2021/05/09 11:31:33;;;;;;;2.63;1.03;;;25.00;50.00;;;;;;5088017;28;20089;-59
2021/05/09 11:33:59;;;;;;;1.60;1.30;;;25.10;48.10;;;;;;5091494;28;20451;-58
2021/05/09 11:36:27;;;;;;;3.70;1.20;;;24.90;46.50;;;;;;5092507;28;20096;-57
2021/05/09 11:39:07;;;;;;;2.77;1.00;;;24.80;46.40;;;;;;5092619;28;20083;-56
2021/05/09 11:41:51;;;;;;;4.07;1.30;;;25.00;47.40;;;;;;5091531;28;20039;-59
2021/05/09 11:44:17;;;;;;;2.10;1.30;;;25.00;48.60;;;;;;5090599;28;20428;-59
2021/05/09 11:46:43;;;;;;;2.50;1.30;;;25.00;49.20;;;;;;5087736;28;20180;-59
2021/05/09 11:49:23;;;;;;;2.80;1.53;;;24.90;47.30;;;;;;5088205;28;20476;-60
2021/05/09 11:51:57;;;;;;;3.57;1.60;;;24.90;46.70;;;;;;5086719;28;20067;-59
2021/05/09 11:54:25;;;;;;;1.70;1.50;;;25.00;48.20;;;;;;5093842;28;20036;-60
2021/05/09 11:56:50;;;;;;;6.37;1.20;;;24.80;48.40;;;;;;5088646;28;20072;-61
2021/05/09 11:59:42;;;;;;;3.03;1.50;;;24.80;49.30;;;;;;5107546;28;20393;-60
2021/05/09 12:02:10;;;;;;;4.00;1.40;;;25.00;50.10;;;;;;5106351;28;20130;-59
2021/05/09 12:04:37;;;;;;;5.67;1.40;;;25.00;50.90;;;;;;5109506;28;20058;-59
2021/05/09 12:07:05;;;;;;;1.63;1.30;;;25.10;49.10;;;;;;5109558;28;20036;-59
2021/05/09 12:09:32;;;;;;;1.23;1.00;;;25.10;49.90;;;;;;5110494;28;20048;-60
2021/05/09 12:11:59;;;;;;;4.97;1.20;;;25.30;48.80;;;;;;5112924;28;20042;-68
2021/05/09 12:14:28;;;;;;;1.97;1.20;;;25.30;47.90;;;;;;5112406;28;20479;-62
2021/05/09 12:16:55;;;;;;;1.83;1.13;;;25.20;48.40;;;;;;5111423;28;20107;-62
2021/05/09 12:19:32;;;;;;;3.87;1.57;;;25.30;48.80;;;;;;5093523;28;21591;-61
2021/05/09 12:22:01;;;;;;;1.33;1.20;;;25.60;48.20;;;;;;5111890;28;20047;-62
2021/05/09 12:24:27;;;;;;;4.40;1.30;;;25.80;49.30;;;;;;5109295;28;20373;-63
2021/05/09 12:27:06;;;;;;;2.37;1.20;;;25.70;48.90;;;;;;5109726;28;20372;-62
2021/05/09 12:29:54;;;;;;;3.23;1.20;;;25.40;47.90;;;;;;5109533;28;20054;-62
2021/05/09 12:32:31;;;;;;;2.53;1.10;;;25.50;49.10;;;;;;5109678;28;20043;-62
2021/05/09 12:35:09;;;;;;;3.60;1.40;;;25.60;49.50;;;;;;5109255;28;20051;-62
2021/05/09 12:37:46;;;;;;;3.47;1.20;;;25.80;50.50;;;;;;5109079;28;20068;-62
2021/05/09 12:40:13;;;;;;;2.33;1.40;;;25.70;50.00;;;;;;5109398;28;20444;-61
2021/05/09 12:43:10;;;;;;;9.60;1.30;;;25.60;50.40;;;;;;5108784;28;20078;-61
2021/05/09 12:45:45;;;;;;;1.27;1.17;;;25.50;50.80;;;;;;5109775;28;20043;-62
2021/05/09 12:48:19;;;;;;;3.93;1.17;;;25.30;51.40;;;;;;5108896;28;20529;-62
2021/05/09 12:50:49;;;;;;;2.93;1.20;;;25.10;53.30;;;;;;5109163;28;20035;-62
2021/05/09 12:53:17;;;;;;;4.47;1.30;;;24.90;54.10;;;;;;5109280;28;20089;-62